createdAt,value
2022-07-26T00:20:39.384Z,19.63
2022-07-26T00:23:06.432Z,21.17
2022-07-26T00:25:33.397Z,21.22
2022-07-26T00:28:00.848Z,21.25
2022-07-26T00:30:28.911Z,21.26
2022-07-26T00:32:55.782Z,21.25
2022-07-26T00:35:22.808Z,21.24
2022-07-26T00:37:49.749Z,21.24
2022-07-26T00:40:17.617Z,21.19
2022-07-26T00:42:44.562Z,21.11
2022-07-26T00:45:11.917Z,21.01
2022-07-26T00:47:38.860Z,20.94
2022-07-26T00:50:06.965Z,20.88
2022-07-26T00:52:34.081Z,20.82
2022-07-26T00:55:01.129Z,20.75
2022-07-26T00:57:28.007Z,20.69
2022-07-26T00:59:54.917Z,20.63
2022-07-26T01:02:21.888Z,20.60
2022-07-26T01:04:48.808Z,20.57
2022-07-26T01:07:15.886Z,20.52
2022-07-26T01:09:43.211Z,20.43
2022-07-26T01:12:10.489Z,20.33
2022-07-26T01:14:37.617Z,20.28
2022-07-26T01:17:04.594Z,20.28
2022-07-26T01:19:31.500Z,20.28
2022-07-26T01:21:58.546Z,20.27
2022-07-26T01:24:25.597Z,20.24
2022-07-26T01:26:52.543Z,20.21
2022-07-26T01:29:19.489Z,20.20
2022-07-26T01:31:46.500Z,20.21
2022-07-26T01:34:13.484Z,20.21
2022-07-26T01:36:40.431Z,20.21
2022-07-26T01:39:07.579Z,20.20
2022-07-26T01:41:38.158Z,20.19
2022-07-26T01:44:07.184Z,20.20
2022-07-26T01:46:35.583Z,20.19
2022-07-26T01:49:02.947Z,20.16
2022-07-26T01:51:30.091Z,20.10
2022-07-26T01:53:56.933Z,20.03
2022-07-26T01:56:23.984Z,19.97
2022-07-26T01:58:51.027Z,19.91
2022-07-26T02:01:37.978Z,19.88
2022-07-26T02:04:05.010Z,19.88
2022-07-26T02:06:32.240Z,19.89
2022-07-26T02:09:00.824Z,19.86
2022-07-26T02:11:28.997Z,19.79
2022-07-26T02:13:55.945Z,19.74
2022-07-26T02:16:22.844Z,19.70
2022-07-26T02:18:50.050Z,19.66
2022-07-26T02:21:17.089Z,19.66
2022-07-26T02:23:44.855Z,19.68
2022-07-26T02:26:11.904Z,19.70
2022-07-26T02:28:38.847Z,19.69
2022-07-26T02:31:05.836Z,19.67
2022-07-26T02:33:32.944Z,19.59
2022-07-26T02:35:59.788Z,19.52
2022-07-26T02:38:26.735Z,19.48
2022-07-26T02:40:53.878Z,19.45
2022-07-26T02:43:20.825Z,19.42
2022-07-26T02:45:58.881Z,19.40
2022-07-26T02:48:29.426Z,19.39
2022-07-26T02:50:56.607Z,19.38
2022-07-26T02:53:23.551Z,19.39
2022-07-26T02:55:50.495Z,19.39
2022-07-26T02:58:17.367Z,19.41
2022-07-26T03:00:44.489Z,19.43
2022-07-26T03:03:14.367Z,19.44
2022-07-26T03:05:41.654Z,19.46
2022-07-26T03:08:08.702Z,19.50
2022-07-26T03:10:35.650Z,19.52
2022-07-26T03:13:02.698Z,19.55
2022-07-26T03:15:29.741Z,19.60
2022-07-26T03:17:56.894Z,19.64
2022-07-26T03:20:23.939Z,19.69
2022-07-26T03:22:50.810Z,19.74
2022-07-26T03:25:17.741Z,19.76
2022-07-26T03:27:44.675Z,19.81
2022-07-26T03:30:12.349Z,19.87
2022-07-26T03:32:39.394Z,19.95
2022-07-26T03:35:07.360Z,20.02
2022-07-26T03:37:45.897Z,20.10
2022-07-26T03:40:16.937Z,20.20
2022-07-26T03:42:45.319Z,20.29
2022-07-26T03:45:13.681Z,20.39
2022-07-26T03:47:40.629Z,20.49
2022-07-26T03:50:08.111Z,20.59
2022-07-26T03:52:35.026Z,20.72
2022-07-26T03:55:21.792Z,20.79
2022-07-26T03:57:48.583Z,20.92
2022-07-26T04:00:15.565Z,21.02
2022-07-26T04:02:42.539Z,21.13
2022-07-26T04:05:09.787Z,21.26
2022-07-26T04:07:52.822Z,21.38
2022-07-26T04:10:21.130Z,21.53
2022-07-26T04:12:48.283Z,21.66
2022-07-26T04:15:17.352Z,21.78
2022-07-26T04:17:44.340Z,21.89
2022-07-26T04:20:13.967Z,22.01
2022-07-26T04:22:40.886Z,22.14
2022-07-26T04:25:08.894Z,22.24
2022-07-26T04:27:36.179Z,22.37
2022-07-26T04:30:03.213Z,22.50
2022-07-26T04:32:30.211Z,22.65
2022-07-26T04:34:57.165Z,22.78
2022-07-26T04:37:24.114Z,22.91
2022-07-26T04:39:54.905Z,23.04
2022-07-26T04:42:22.201Z,23.16
2022-07-26T04:44:49.152Z,23.29
2022-07-26T04:47:16.090Z,23.42
2022-07-26T04:49:43.036Z,23.55
2022-07-26T04:52:09.878Z,23.70
2022-07-26T04:54:36.728Z,23.84
2022-07-26T04:57:03.980Z,24.00
2022-07-26T04:59:32.568Z,24.17
2022-07-26T05:02:00.046Z,24.32
2022-07-26T05:04:27.178Z,24.46
2022-07-26T05:06:54.126Z,24.62
2022-07-26T05:09:21.074Z,24.78
2022-07-26T05:11:47.949Z,24.94
2022-07-26T05:14:14.769Z,25.09
2022-07-26T05:16:43.959Z,25.25
2022-07-26T05:19:11.736Z,25.38
2022-07-26T05:21:39.097Z,25.51
2022-07-26T05:24:07.785Z,25.70
2022-07-26T05:26:35.250Z,25.91
2022-07-26T05:29:02.416Z,26.16
2022-07-26T05:31:29.420Z,26.40
2022-07-26T05:33:56.413Z,26.62
2022-07-26T05:36:23.364Z,26.87
2022-07-26T05:38:50.253Z,27.15
2022-07-26T05:41:17.484Z,27.41
2022-07-26T05:43:44.536Z,27.60
2022-07-26T05:46:12.095Z,27.73
2022-07-26T05:48:42.905Z,27.88
2022-07-26T05:51:10.822Z,28.09
2022-07-26T05:53:37.805Z,28.19
2022-07-26T05:56:05.340Z,28.30
2022-07-26T05:58:32.286Z,28.53
2022-07-26T06:00:59.244Z,28.87
2022-07-26T06:03:26.292Z,29.14
2022-07-26T06:05:57.232Z,29.25
2022-07-26T06:08:25.288Z,29.41
2022-07-26T06:10:52.659Z,29.64
2022-07-26T06:13:19.605Z,29.79
2022-07-26T06:15:46.754Z,29.87
2022-07-26T06:18:13.905Z,29.89
2022-07-26T06:20:41.977Z,29.97
2022-07-26T06:23:09.031Z,30.07
2022-07-26T06:25:35.986Z,30.33
2022-07-26T06:28:04.161Z,30.59
2022-07-26T06:30:31.110Z,30.84
2022-07-26T06:32:58.262Z,31.02
2022-07-26T06:35:25.210Z,31.08
2022-07-26T06:37:52.156Z,31.14
2022-07-26T06:40:19.114Z,31.28
2022-07-26T06:42:45.888Z,31.45
2022-07-26T06:45:12.809Z,31.47
2022-07-26T06:47:39.765Z,31.42
2022-07-26T06:50:07.462Z,31.33
2022-07-26T06:52:34.588Z,31.43
2022-07-26T06:55:01.842Z,31.59
2022-07-26T06:57:28.789Z,31.83
2022-07-26T06:59:55.740Z,32.13
2022-07-26T07:02:22.784Z,32.45
2022-07-26T07:04:50.127Z,32.61
2022-07-26T07:07:17.085Z,32.77
2022-07-26T07:09:44.548Z,33.13
2022-07-26T07:12:11.495Z,33.52
2022-07-26T07:14:39.302Z,33.80
2022-07-26T07:17:12.867Z,34.01
2022-07-26T07:19:41.968Z,34.12
2022-07-26T07:22:12.674Z,34.25
2022-07-26T07:24:40.369Z,34.19
2022-07-26T07:27:07.426Z,34.14
2022-07-26T07:29:34.474Z,34.44
2022-07-26T07:32:03.571Z,34.64
2022-07-26T07:34:30.646Z,34.77
2022-07-26T07:36:57.886Z,35.04
2022-07-26T07:39:27.116Z,35.27
2022-07-26T07:41:54.336Z,35.39
2022-07-26T07:44:21.388Z,35.44
2022-07-26T07:46:48.380Z,35.46
2022-07-26T07:49:16.157Z,35.41
2022-07-26T07:51:43.559Z,35.37
2022-07-26T07:54:12.961Z,35.33
2022-07-26T07:56:39.918Z,35.28
2022-07-26T07:59:07.531Z,35.20
2022-07-26T08:01:39.479Z,35.08
2022-07-26T08:04:07.155Z,35.15
2022-07-26T08:06:34.447Z,35.35
2022-07-26T08:09:01.603Z,35.49
2022-07-26T08:11:31.457Z,35.83
2022-07-26T08:14:00.884Z,36.18
2022-07-26T08:16:27.852Z,36.39
2022-07-26T08:18:57.963Z,36.68
2022-07-26T08:21:28.211Z,37.12
2022-07-26T08:23:59.704Z,37.52
2022-07-26T08:26:26.905Z,37.76
2022-07-26T08:28:59.873Z,37.81
2022-07-26T08:31:28.864Z,37.89
2022-07-26T08:33:56.192Z,37.98
2022-07-26T08:36:23.084Z,38.08
2022-07-26T08:38:49.921Z,38.13
2022-07-26T08:41:18.436Z,38.09
2022-07-26T08:43:51.822Z,38.22
2022-07-26T08:46:25.510Z,38.59
2022-07-26T08:48:54.684Z,38.92
2022-07-26T08:51:23.808Z,39.28
2022-07-26T08:53:55.474Z,39.41
2022-07-26T08:56:25.006Z,39.20
2022-07-26T08:58:51.860Z,39.12
2022-07-26T09:01:19.173Z,39.24
2022-07-26T09:03:46.907Z,39.34
2022-07-26T09:06:18.413Z,39.32
2022-07-26T09:08:48.461Z,39.18
2022-07-26T09:11:35.766Z,39.36
2022-07-26T09:14:06.213Z,39.53
2022-07-26T09:16:37.321Z,39.64
2022-07-26T09:19:21.770Z,39.87
2022-07-26T09:21:49.089Z,40.11
2022-07-26T09:24:31.606Z,40.07
2022-07-26T09:26:59.885Z,39.99
2022-07-26T09:29:26.833Z,40.05
2022-07-26T09:31:54.116Z,39.99
2022-07-26T09:34:25.491Z,39.75
2022-07-26T09:36:57.306Z,39.59
2022-07-26T09:39:33.583Z,39.66
2022-07-26T09:42:28.394Z,39.83
2022-07-26T09:44:56.904Z,39.54
2022-07-26T09:47:35.491Z,39.66
2022-07-26T09:50:29.950Z,39.95
2022-07-26T09:53:10.660Z,40.39
2022-07-26T09:55:54.409Z,40.89
2022-07-26T09:58:22.071Z,41.24
2022-07-26T10:00:49.835Z,41.35
2022-07-26T10:03:16.826Z,41.39
2022-07-26T10:05:44.133Z,41.30
2022-07-26T10:08:11.180Z,40.97
2022-07-26T10:10:48.775Z,40.75
2022-07-26T10:13:15.727Z,40.76
2022-07-26T10:15:47.227Z,40.91
2022-07-26T10:18:36.151Z,41.00
2022-07-26T10:21:24.099Z,41.07
2022-07-26T10:23:58.805Z,41.18
2022-07-26T10:26:32.089Z,41.15
2022-07-26T10:29:17.484Z,41.24
2022-07-26T10:31:45.404Z,41.11
2022-07-26T10:34:39.391Z,40.61
2022-07-26T10:37:08.615Z,39.98
2022-07-26T10:39:36.074Z,39.68
2022-07-26T10:42:08.465Z,39.55
2022-07-26T10:44:44.166Z,39.42
2022-07-26T10:47:16.071Z,39.37
2022-07-26T10:49:59.019Z,39.41
2022-07-26T10:52:30.583Z,39.50
2022-07-26T10:54:59.958Z,39.77
2022-07-26T10:57:28.339Z,39.54
2022-07-26T10:59:57.767Z,39.36
2022-07-26T11:02:26.587Z,39.52
2022-07-26T11:05:13.475Z,39.65
2022-07-26T11:07:55.195Z,39.64
2022-07-26T11:10:24.366Z,39.79
2022-07-26T11:13:05.345Z,40.17
2022-07-26T11:15:32.385Z,40.57
2022-07-26T11:18:09.928Z,40.68
2022-07-26T11:20:37.052Z,40.33
2022-07-26T11:23:04.350Z,39.94
2022-07-26T11:25:31.575Z,39.69
2022-07-26T11:28:03.304Z,39.75
2022-07-26T11:30:34.488Z,40.14
2022-07-26T11:33:01.656Z,40.47
2022-07-26T11:35:29.755Z,40.76
2022-07-26T11:38:07.854Z,40.72
2022-07-26T11:40:46.334Z,40.70
2022-07-26T11:43:13.522Z,40.81
2022-07-26T11:45:40.471Z,40.69
2022-07-26T11:48:08.551Z,40.44
2022-07-26T11:50:35.504Z,40.28
2022-07-26T11:53:02.458Z,40.34
2022-07-26T11:55:30.454Z,40.49
2022-07-26T11:57:57.703Z,40.64
2022-07-26T12:00:24.854Z,40.69
2022-07-26T12:02:55.905Z,40.89
2022-07-26T12:05:23.673Z,41.12
2022-07-26T12:07:57.195Z,41.10
2022-07-26T12:10:25.108Z,40.84
2022-07-26T12:13:07.217Z,40.76
2022-07-26T12:15:47.887Z,40.72
2022-07-26T12:18:28.853Z,40.94
2022-07-26T12:21:04.186Z,41.39
2022-07-26T12:24:01.548Z,41.82
2022-07-26T12:26:30.346Z,41.76
2022-07-26T12:28:57.900Z,41.38
2022-07-26T12:31:29.370Z,41.29
2022-07-26T12:33:56.614Z,41.12
2022-07-26T12:36:27.788Z,40.82
2022-07-26T12:38:56.207Z,40.78
2022-07-26T12:41:33.983Z,40.62
2022-07-26T12:44:00.911Z,40.23
2022-07-26T12:46:28.418Z,40.06
2022-07-26T12:49:00.052Z,40.05
2022-07-26T12:51:27.707Z,40.16
2022-07-26T12:53:54.861Z,40.31
2022-07-26T12:56:21.814Z,40.39
2022-07-26T12:58:48.666Z,40.31
2022-07-26T13:01:15.651Z,40.48
2022-07-26T13:03:42.982Z,40.82
2022-07-26T13:06:10.134Z,41.21
2022-07-26T13:08:37.193Z,41.28
2022-07-26T13:11:04.072Z,41.17
2022-07-26T13:13:31.140Z,41.06
2022-07-26T13:15:58.715Z,41.02
2022-07-26T13:18:25.751Z,41.14
2022-07-26T13:20:53.807Z,41.13
2022-07-26T13:23:21.945Z,41.07
2022-07-26T13:25:51.292Z,41.17
2022-07-26T13:28:18.560Z,41.36
2022-07-26T13:30:45.463Z,41.67
2022-07-26T13:33:12.482Z,41.98
2022-07-26T13:35:41.049Z,42.04
2022-07-26T13:38:08.794Z,41.69
2022-07-26T13:40:36.104Z,41.30
2022-07-26T13:43:03.305Z,41.08
2022-07-26T13:45:30.459Z,40.95
2022-07-26T13:47:59.144Z,40.89
2022-07-26T13:50:27.451Z,40.84
2022-07-26T13:52:56.547Z,40.69
2022-07-26T13:55:24.210Z,40.43
2022-07-26T13:57:57.080Z,40.08
2022-07-26T14:00:26.539Z,39.84
2022-07-26T14:02:54.161Z,39.75
2022-07-26T14:05:21.317Z,39.65
2022-07-26T14:07:48.478Z,39.63
2022-07-26T14:10:15.422Z,39.67
2022-07-26T14:12:42.373Z,39.76
2022-07-26T14:15:15.153Z,39.86
2022-07-26T14:17:45.811Z,39.85
2022-07-26T14:20:13.275Z,39.90
2022-07-26T14:22:40.640Z,40.02
2022-07-26T14:25:08.206Z,40.12
2022-07-26T14:27:35.262Z,40.26
2022-07-26T14:30:02.529Z,40.33
2022-07-26T14:32:29.588Z,40.13
2022-07-26T14:34:56.539Z,39.85
2022-07-26T14:37:41.885Z,39.68
2022-07-26T14:40:11.236Z,39.39
2022-07-26T14:42:38.190Z,39.04
2022-07-26T14:45:05.817Z,38.73
2022-07-26T14:47:32.804Z,38.59
2022-07-26T14:50:05.806Z,38.53
2022-07-26T14:52:33.669Z,38.38
2022-07-26T14:55:00.551Z,38.24
2022-07-26T14:57:27.682Z,38.28
2022-07-26T14:59:54.629Z,38.48
2022-07-26T15:02:22.133Z,38.60
2022-07-26T15:04:49.350Z,38.55
2022-07-26T15:07:16.228Z,38.45
2022-07-26T15:09:43.153Z,38.39
2022-07-26T15:12:10.620Z,38.35
2022-07-26T15:14:38.082Z,38.14
2022-07-26T15:17:05.162Z,37.93
2022-07-26T15:19:32.193Z,37.79
2022-07-26T15:22:02.732Z,37.75
2022-07-26T15:24:29.888Z,37.81
2022-07-26T15:26:57.050Z,37.86
2022-07-26T15:29:24.211Z,37.86
2022-07-26T15:31:51.299Z,37.90
2022-07-26T15:34:18.309Z,38.00
2022-07-26T15:36:45.261Z,37.94
2022-07-26T15:39:19.635Z,37.84
2022-07-26T15:41:47.558Z,37.69
2022-07-26T15:44:18.645Z,37.55
2022-07-26T15:46:47.926Z,37.40
2022-07-26T15:49:15.599Z,37.22
2022-07-26T15:51:43.140Z,37.10
2022-07-26T15:54:11.473Z,36.93
2022-07-26T15:56:38.783Z,36.76
2022-07-26T15:59:08.928Z,36.69
2022-07-26T16:01:36.544Z,36.60
2022-07-26T16:04:05.148Z,36.52
2022-07-26T16:06:33.239Z,36.45
2022-07-26T16:09:18.864Z,36.38
2022-07-26T16:11:47.264Z,36.16
2022-07-26T16:14:14.715Z,35.98
2022-07-26T16:16:43.859Z,35.88
2022-07-26T16:19:11.760Z,35.71
2022-07-26T16:21:39.024Z,35.49
2022-07-26T16:24:07.782Z,35.31
2022-07-26T16:26:35.892Z,35.07
2022-07-26T16:29:03.266Z,34.83
2022-07-26T16:31:30.994Z,34.62
2022-07-26T16:33:58.087Z,34.35
2022-07-26T16:36:25.291Z,34.08
2022-07-26T16:38:52.193Z,33.78
2022-07-26T16:41:19.143Z,33.41
2022-07-26T16:43:46.092Z,33.03
2022-07-26T16:46:13.133Z,32.71
2022-07-26T16:48:40.368Z,32.43
2022-07-26T16:51:07.459Z,32.18
2022-07-26T16:53:34.409Z,31.97
2022-07-26T16:56:01.561Z,31.77
2022-07-26T16:58:28.825Z,31.62
2022-07-26T17:00:55.835Z,31.45
2022-07-26T17:03:23.777Z,31.29
2022-07-26T17:05:50.894Z,31.12
2022-07-26T17:08:18.048Z,30.94
2022-07-26T17:10:45.028Z,30.76
2022-07-26T17:13:12.254Z,30.64
2022-07-26T17:15:39.109Z,30.53
2022-07-26T17:18:06.291Z,30.40
2022-07-26T17:20:34.451Z,30.33
2022-07-26T17:23:01.418Z,30.26
2022-07-26T17:25:28.763Z,30.19
2022-07-26T17:27:55.719Z,30.12
2022-07-26T17:30:22.683Z,29.99
2022-07-26T17:32:49.701Z,29.85
2022-07-26T17:35:16.729Z,29.70
2022-07-26T17:37:43.642Z,29.55
2022-07-26T17:40:11.891Z,29.43
2022-07-26T17:42:39.104Z,29.36
2022-07-26T17:45:07.192Z,29.31
2022-07-26T17:47:34.120Z,29.26
2022-07-26T17:50:26.382Z,29.20
2022-07-26T17:52:49.667Z,29.13
2022-07-26T17:55:18.563Z,29.08
2022-07-26T17:57:46.013Z,29.05
2022-07-26T18:00:13.677Z,28.98
2022-07-26T18:02:40.840Z,28.88
2022-07-26T18:05:08.228Z,28.79
2022-07-26T18:07:35.239Z,28.65
2022-07-26T18:10:02.187Z,28.54
2022-07-26T18:12:30.770Z,28.45
2022-07-26T18:14:58.023Z,28.32
2022-07-26T18:17:25.209Z,28.17
2022-07-26T18:19:52.332Z,28.02
2022-07-26T18:22:19.523Z,27.93
2022-07-26T18:24:46.752Z,27.97
2022-07-26T18:27:13.723Z,27.88
2022-07-26T18:29:40.769Z,27.81
2022-07-26T18:32:08.076Z,27.81
2022-07-26T18:34:34.985Z,27.75
2022-07-26T18:37:01.943Z,27.69
2022-07-26T18:39:30.484Z,27.69
2022-07-26T18:42:00.773Z,27.62
2022-07-26T18:44:27.830Z,27.52
2022-07-26T18:46:56.483Z,27.49
2022-07-26T18:49:30.785Z,27.44
2022-07-26T18:52:04.323Z,27.37
2022-07-26T18:54:35.849Z,27.38
2022-07-26T18:57:03.282Z,27.33
2022-07-26T18:59:31.440Z,27.26
2022-07-26T19:02:00.526Z,27.18
2022-07-26T19:04:29.090Z,27.10
2022-07-26T19:06:57.864Z,27.00
2022-07-26T19:09:25.617Z,26.86
2022-07-26T19:11:53.514Z,26.79
2022-07-26T19:14:20.716Z,26.79
2022-07-26T19:16:50.930Z,26.81
2022-07-26T19:19:18.341Z,26.82
2022-07-26T19:21:49.237Z,26.81
2022-07-26T19:24:17.570Z,26.78
2022-07-26T19:26:45.133Z,26.72
2022-07-26T19:29:12.852Z,26.65
2022-07-26T19:31:46.466Z,26.60
2022-07-26T19:34:14.895Z,26.55
2022-07-26T19:36:42.165Z,26.50
2022-07-26T19:39:09.867Z,26.41
2022-07-26T19:41:37.183Z,26.36
2022-07-26T19:44:04.520Z,26.30
2022-07-26T19:46:32.974Z,26.25
2022-07-26T19:49:00.914Z,26.22
2022-07-26T19:51:28.061Z,26.20
2022-07-26T19:53:55.308Z,26.15
2022-07-26T19:56:22.256Z,26.06
2022-07-26T19:58:49.713Z,25.97
2022-07-26T20:01:16.925Z,25.89
2022-07-26T20:03:44.112Z,25.79
2022-07-26T20:06:11.160Z,25.70
2022-07-26T20:08:38.413Z,25.56
2022-07-26T20:11:05.561Z,25.42
2022-07-26T20:13:32.433Z,25.30
2022-07-26T20:16:02.430Z,25.22
2022-07-26T20:18:31.022Z,25.13
2022-07-26T20:20:58.070Z,25.04
2022-07-26T20:23:25.120Z,24.99
2022-07-26T20:25:52.171Z,24.92
2022-07-26T20:28:19.126Z,24.93
2022-07-26T20:30:48.601Z,24.95
2022-07-26T20:33:15.792Z,24.93
2022-07-26T20:35:42.667Z,24.88
2022-07-26T20:38:09.591Z,24.88
2022-07-26T20:40:36.648Z,24.85
2022-07-26T20:43:05.444Z,24.77
2022-07-26T20:45:33.092Z,24.71
2022-07-26T20:48:00.268Z,24.61
2022-07-26T20:50:27.156Z,24.52
2022-07-26T20:52:54.167Z,24.40
2022-07-26T20:55:21.867Z,24.21
2022-07-26T20:57:50.260Z,24.03
2022-07-26T21:00:17.792Z,23.91
2022-07-26T21:02:45.113Z,23.90
2022-07-26T21:05:13.131Z,23.85
2022-07-26T21:07:58.639Z,23.74
2022-07-26T21:10:30.365Z,23.67
2022-07-26T21:13:00.481Z,23.59
2022-07-26T21:15:28.696Z,23.56
2022-07-26T21:17:55.711Z,23.57
2022-07-26T21:20:22.655Z,23.51
2022-07-26T21:22:49.600Z,23.55
2022-07-26T21:25:16.554Z,23.56
2022-07-26T21:27:44.026Z,23.44
2022-07-26T21:30:11.785Z,23.36
2022-07-26T21:32:38.731Z,23.29
2022-07-26T21:35:06.528Z,23.16
2022-07-26T21:37:33.960Z,23.14
2022-07-26T21:40:01.205Z,23.04
2022-07-26T21:42:28.362Z,23.00
2022-07-26T21:44:55.312Z,22.98
2022-07-26T21:47:22.362Z,23.01
2022-07-26T21:49:49.312Z,22.98
2022-07-26T21:52:16.465Z,22.88
2022-07-26T21:54:43.417Z,22.82
2022-07-26T21:57:10.469Z,22.78
2022-07-26T21:59:37.516Z,22.68
2022-07-26T22:02:04.511Z,22.60
2022-07-26T22:04:31.519Z,22.55
2022-07-26T22:06:58.468Z,22.38
2022-07-26T22:09:25.415Z,22.24
2022-07-26T22:11:53.508Z,22.27
2022-07-26T22:14:22.177Z,22.28
2022-07-26T22:16:49.485Z,22.21
2022-07-26T22:19:16.483Z,22.22
2022-07-26T22:21:43.426Z,22.30
2022-07-26T22:24:10.376Z,22.29
2022-07-26T22:26:37.527Z,22.28
2022-07-26T22:29:05.704Z,22.33
2022-07-26T22:31:32.803Z,22.36
2022-07-26T22:33:59.811Z,22.25
2022-07-26T22:36:26.850Z,22.15
2022-07-26T22:38:53.801Z,22.13
2022-07-26T22:41:20.753Z,22.20
2022-07-26T22:43:47.696Z,22.14
2022-07-26T22:46:14.713Z,21.99
2022-07-26T22:48:45.953Z,21.90
2022-07-26T22:51:13.665Z,21.79
2022-07-26T22:53:40.600Z,21.75
2022-07-26T22:56:07.475Z,21.76
2022-07-26T22:58:34.494Z,21.76
2022-07-26T23:01:01.575Z,21.74
2022-07-26T23:03:28.980Z,21.65
2022-07-26T23:05:57.386Z,21.61
2022-07-26T23:08:46.079Z,21.58
2022-07-26T23:11:11.240Z,21.57
2022-07-26T23:13:38.189Z,21.56
2022-07-26T23:16:05.305Z,21.51
2022-07-26T23:18:33.030Z,21.44
2022-07-26T23:20:59.946Z,21.42
2022-07-26T23:23:28.368Z,21.38
2022-07-26T23:25:57.785Z,21.35
2022-07-26T23:28:36.815Z,21.27
2022-07-26T23:31:10.347Z,21.19
2022-07-26T23:33:50.791Z,21.15
2022-07-26T23:36:25.483Z,21.18
2022-07-26T23:38:52.617Z,21.22
2022-07-26T23:41:19.664Z,21.32
2022-07-26T23:43:46.618Z,21.36
2022-07-26T23:46:13.633Z,21.35
2022-07-26T23:48:40.876Z,21.33
2022-07-26T23:51:08.176Z,21.39
2022-07-26T23:53:35.535Z,21.46
2022-07-26T23:56:02.385Z,21.43
2022-07-26T23:58:29.530Z,21.32
